Impacts METAR Board
IDs:

KBTR - Baton Rouge/Ryan Fld, LA, US

Updated at: 2200 UTC 02 Oct 2022
Potential Impact None Slight Moderate High
Time 02/10Z 02/11Z 02/12Z 02/13Z 02/14Z 02/15Z 02/16Z 02/17Z 02/18Z 02/19Z 02/20Z 02/21Z 02/22Z
Temp53 52 52 56 65 72 77 81 82 84 85 85 83
Dewpt49 49 49 50 51 51 51 49 48 49 48 49 50
Altim30.05 30.06 30.08 30.09 30.11 30.12 30.13 30.11 30.09 30.06 30.04 30.03 30.03
VIS10 10 10 10 10 10 10 10 10 10 10 10 10
CIG-- -- -- -- -- -- -- -- -- -- -- -- --
CoverCLRCLRCLRCLRCLRCLRCLRCLRCLRCLRCLRCLRCLR
FltCatVFRVFRVFRVFRVFRVFRVFRVFRVFRVFRVFRVFRVFR
WX--------------------------
WDir00003060200350300360330
WSpd0 0 0 0 3 5 4 0 7 10 3 9 5
WGst-- -- -- -- -- -- -- -- -- -- -- -- --
Raw hourly METARs
KBTR 020953Z AUTO 00000KT 10SM CLR 12/09 A3005 RMK AO2 SLP174 T01170094
KBTR 021053Z 00000KT 10SM CLR 11/09 A3006 RMK AO2 SLP177 T01110094
KBTR 021153Z 00000KT 10SM CLR 11/09 A3008 RMK AO2 SLP183 T01110094 10139 20106 53011
KBTR 021253Z 00000KT 10SM CLR 13/10 A3009 RMK AO2 SLP189 T01330100
KBTR 021353Z 03003KT 10SM CLR 18/11 A3011 RMK AO2 SLP195 T01830106
KBTR 021453Z 06005KT 10SM CLR 22/11 A3012 RMK AO2 SLP198 T02220106 51014
KBTR 021553Z 02004KT 10SM CLR 25/11 A3013 RMK AO2 SLP200 T02500106
KBTR 021653Z 00000KT 10SM CLR 27/09 A3011 RMK AO2 SLP196 T02720094
KBTR 021753Z 35007KT 330V040 10SM CLR 28/09 A3009 RMK AO2 SLP189 T02780089 10283 20106 58009
KBTR 021853Z 03010KT 10SM CLR 29/09 A3006 RMK AO2 SLP179 T02890094
KBTR 021953Z VRB03KT 10SM CLR 29/09 A3004 RMK AO2 SLP172 T02940089
KBTR 022053Z AUTO 36009KT 10SM CLR 29/09 A3003 RMK AO2 SLP169 T02940094 56019
KBTR 022153Z 33005KT 10SM CLR 28/10 A3003 RMK AO2 SLP168 T02830100



Page loaded:  22:31 UTC  |   03:31 PM Pacific  |   04:31 PM Mountain  |   05:31 PM Central  |   06:31 PM Eastern

 

ADVISORIES

FORECASTS

FORECASTS

OBSERVATIONS

USER TOOLS

ABOUT US